sensor_id;sensor_type;location;lat;lon;timestamp;temperature;humidity
26342;DHT22;14054;50.108;8.640;2023-12-04T00:01:47;-1.20;99.90
26342;DHT22;14054;50.108;8.640;2023-12-04T00:04:13;-1.20;99.90
26342;DHT22;14054;50.108;8.640;2023-12-04T00:06:39;-1.30;99.90
26342;DHT22;14054;50.108;8.640;2023-12-04T00:09:04;-1.30;99.90
26342;DHT22;14054;50.108;8.640;2023-12-04T00:11:30;-1.30;99.90
26342;DHT22;14054;50.108;8.640;2023-12-04T00:13:56;-1.30;99.90
26342;DHT22;14054;50.108;8.640;2023-12-04T00:16:21;-1.30;99.90
26342;DHT22;14054;50.108;8.640;2023-12-04T00:18:47;-1.30;99.90
26342;DHT22;14054;50.108;8.640;2023-12-04T00:21:13;-1.40;99.90
26342;DHT22;14054;50.108;8.640;2023-12-04T00:23:38;-1.40;99.90
26342;DHT22;14054;50.108;8.640;2023-12-04T00:26:04;-1.40;99.90
26342;DHT22;14054;50.108;8.640;2023-12-04T00:28:30;-1.40;99.90
26342;DHT22;14054;50.108;8.640;2023-12-04T00:30:55;-1.40;99.90
26342;DHT22;14054;50.108;8.640;2023-12-04T00:33:21;-1.40;99.90
26342;DHT22;14054;50.108;8.640;2023-12-04T00:35:46;-1.40;99.90
26342;DHT22;14054;50.108;8.640;2023-12-04T00:38:12;-1.40;99.90
26342;DHT22;14054;50.108;8.640;2023-12-04T00:40:37;-1.50;99.90
26342;DHT22;14054;50.108;8.640;2023-12-04T00:43:03;-1.50;99.90
26342;DHT22;14054;50.108;8.640;2023-12-04T00:45:28;-1.50;99.90
26342;DHT22;14054;50.108;8.640;2023-12-04T00:47:54;-1.50;99.90
26342;DHT22;14054;50.108;8.640;2023-12-04T00:50:19;-1.50;99.90
26342;DHT22;14054;50.108;8.640;2023-12-04T00:52:45;-1.50;99.90
26342;DHT22;14054;50.108;8.640;2023-12-04T00:55:11;-1.60;99.90
26342;DHT22;14054;50.108;8.640;2023-12-04T00:57:36;-1.50;99.90
26342;DHT22;14054;50.108;8.640;2023-12-04T01:00:03;-1.60;99.90
26342;DHT22;14054;50.108;8.640;2023-12-04T01:02:28;-1.60;99.90
26342;DHT22;14054;50.108;8.640;2023-12-04T01:04:54;-1.60;99.90
26342;DHT22;14054;50.108;8.640;2023-12-04T01:07:19;-1.60;99.90
26342;DHT22;14054;50.108;8.640;2023-12-04T01:09:45;-1.60;99.90
26342;DHT22;14054;50.108;8.640;2023-12-04T01:12:11;-1.70;99.90
26342;DHT22;14054;50.108;8.640;2023-12-04T01:14:36;-1.70;99.90
26342;DHT22;14054;50.108;8.640;2023-12-04T01:17:03;-1.70;99.90
26342;DHT22;14054;50.108;8.640;2023-12-04T01:19:29;-1.70;99.90
26342;DHT22;14054;50.108;8.640;2023-12-04T01:21:55;-1.70;99.90
26342;DHT22;14054;50.108;8.640;2023-12-04T01:24:20;-1.70;99.90
26342;DHT22;14054;50.108;8.640;2023-12-04T01:26:46;-1.70;99.90
26342;DHT22;14054;50.108;8.640;2023-12-04T01:29:12;-1.70;99.90
26342;DHT22;14054;50.108;8.640;2023-12-04T01:31:37;-1.70;99.90
26342;DHT22;14054;50.108;8.640;2023-12-04T01:34:03;-1.70;99.90
26342;DHT22;14054;50.108;8.640;2023-12-04T01:36:28;-1.70;99.90
26342;DHT22;14054;50.108;8.640;2023-12-04T01:38:54;-1.80;99.90
26342;DHT22;14054;50.108;8.640;2023-12-04T01:41:19;-1.80;99.90
26342;DHT22;14054;50.108;8.640;2023-12-04T01:43:45;-1.80;99.90
26342;DHT22;14054;50.108;8.640;2023-12-04T01:46:11;-1.80;99.90
26342;DHT22;14054;50.108;8.640;2023-12-04T01:48:37;-1.80;99.90
26342;DHT22;14054;50.108;8.640;2023-12-04T01:51:06;-1.80;99.90
26342;DHT22;14054;50.108;8.640;2023-12-04T01:53:32;-1.80;99.90
26342;DHT22;14054;50.108;8.640;2023-12-04T01:55:58;-1.80;99.90
26342;DHT22;14054;50.108;8.640;2023-12-04T01:58:24;-1.80;99.90
26342;DHT22;14054;50.108;8.640;2023-12-04T02:00:49;-1.80;99.90
26342;DHT22;14054;50.108;8.640;2023-12-04T02:03:15;-1.80;99.90
26342;DHT22;14054;50.108;8.640;2023-12-04T02:05:44;-1.90;99.90
26342;DHT22;14054;50.108;8.640;2023-12-04T02:08:09;-2.00;99.90
26342;DHT22;14054;50.108;8.640;2023-12-04T02:10:36;-2.00;99.90
26342;DHT22;14054;50.108;8.640;2023-12-04T02:13:01;-1.90;99.90
26342;DHT22;14054;50.108;8.640;2023-12-04T02:15:27;-2.00;99.90
26342;DHT22;14054;50.108;8.640;2023-12-04T02:17:53;-2.00;99.90
26342;DHT22;14054;50.108;8.640;2023-12-04T02:20:19;-2.00;99.90
26342;DHT22;14054;50.108;8.640;2023-12-04T02:22:44;-2.00;99.90
26342;DHT22;14054;50.108;8.640;2023-12-04T02:25:10;-2.00;99.90
26342;DHT22;14054;50.108;8.640;2023-12-04T02:27:49;-2.00;99.90
26342;DHT22;14054;50.108;8.640;2023-12-04T02:30:17;-2.00;99.90
26342;DHT22;14054;50.108;8.640;2023-12-04T02:32:46;-2.00;99.90
26342;DHT22;14054;50.108;8.640;2023-12-04T02:35:14;-2.10;99.90
26342;DHT22;14054;50.108;8.640;2023-12-04T02:37:42;-2.10;99.90
26342;DHT22;14054;50.108;8.640;2023-12-04T02:40:08;-2.10;99.90
26342;DHT22;14054;50.108;8.640;2023-12-04T02:42:34;-2.10;99.90
26342;DHT22;14054;50.108;8.640;2023-12-04T02:44:59;-2.10;99.90
26342;DHT22;14054;50.108;8.640;2023-12-04T02:47:25;-2.20;99.90
26342;DHT22;14054;50.108;8.640;2023-12-04T02:49:50;-2.20;99.90
26342;DHT22;14054;50.108;8.640;2023-12-04T02:52:16;-2.20;99.90
26342;DHT22;14054;50.108;8.640;2023-12-04T02:54:42;-2.10;99.90
26342;DHT22;14054;50.108;8.640;2023-12-04T02:57:07;-2.10;99.90
26342;DHT22;14054;50.108;8.640;2023-12-04T02:59:33;-2.10;99.90
26342;DHT22;14054;50.108;8.640;2023-12-04T03:01:58;-2.10;99.90
26342;DHT22;14054;50.108;8.640;2023-12-04T03:04:24;-2.10;99.90
26342;DHT22;14054;50.108;8.640;2023-12-04T03:06:50;-2.10;99.90
26342;DHT22;14054;50.108;8.640;2023-12-04T03:09:15;-2.10;99.90
26342;DHT22;14054;50.108;8.640;2023-12-04T03:11:41;-2.10;99.90
26342;DHT22;14054;50.108;8.640;2023-12-04T03:14:07;-2.10;99.90
26342;DHT22;14054;50.108;8.640;2023-12-04T03:16:32;-2.20;99.90
26342;DHT22;14054;50.108;8.640;2023-12-04T03:18:58;-2.20;99.90
26342;DHT22;14054;50.108;8.640;2023-12-04T03:21:24;-2.20;99.90
26342;DHT22;14054;50.108;8.640;2023-12-04T03:23:50;-2.20;99.90
26342;DHT22;14054;50.108;8.640;2023-12-04T03:26:15;-2.20;99.90
26342;DHT22;14054;50.108;8.640;2023-12-04T03:28:41;-2.20;99.90
26342;DHT22;14054;50.108;8.640;2023-12-04T03:31:07;-2.20;99.90
26342;DHT22;14054;50.108;8.640;2023-12-04T03:33:32;-2.20;99.90
26342;DHT22;14054;50.108;8.640;2023-12-04T03:36:01;-2.20;99.90
26342;DHT22;14054;50.108;8.640;2023-12-04T03:38:27;-2.20;99.90
26342;DHT22;14054;50.108;8.640;2023-12-04T03:40:52;-2.20;99.90
26342;DHT22;14054;50.108;8.640;2023-12-04T03:43:18;-2.30;99.90
26342;DHT22;14054;50.108;8.640;2023-12-04T03:45:44;-2.20;99.90
26342;DHT22;14054;50.108;8.640;2023-12-04T03:48:09;-2.20;99.90
26342;DHT22;14054;50.108;8.640;2023-12-04T03:50:35;-2.20;99.90
26342;DHT22;14054;50.108;8.640;2023-12-04T03:53:01;-2.20;99.90
26342;DHT22;14054;50.108;8.640;2023-12-04T03:55:27;-2.20;99.90
26342;DHT22;14054;50.108;8.640;2023-12-04T03:57:53;-2.20;99.90
26342;DHT22;14054;50.108;8.640;2023-12-04T04:00:19;-2.20;99.90
26342;DHT22;14054;50.108;8.640;2023-12-04T04:02:45;-2.20;99.90
26342;DHT22;14054;50.108;8.640;2023-12-04T04:05:10;-2.20;99.90
26342;DHT22;14054;50.108;8.640;2023-12-04T04:07:36;-2.20;99.90
26342;DHT22;14054;50.108;8.640;2023-12-04T04:10:02;-2.20;99.90
26342;DHT22;14054;50.108;8.640;2023-12-04T04:12:29;-2.20;99.90
26342;DHT22;14054;50.108;8.640;2023-12-04T04:14:56;-2.20;99.90
26342;DHT22;14054;50.108;8.640;2023-12-04T04:17:21;-2.20;99.90
26342;DHT22;14054;50.108;8.640;2023-12-04T04:19:47;-2.10;99.90
26342;DHT22;14054;50.108;8.640;2023-12-04T04:22:12;-2.10;99.90
26342;DHT22;14054;50.108;8.640;2023-12-04T04:24:38;-2.10;99.90
26342;DHT22;14054;50.108;8.640;2023-12-04T04:27:03;-2.10;99.90
26342;DHT22;14054;50.108;8.640;2023-12-04T04:29:29;-2.00;99.90
26342;DHT22;14054;50.108;8.640;2023-12-04T04:31:54;-2.10;99.90
26342;DHT22;14054;50.108;8.640;2023-12-04T04:34:21;-2.00;99.90
26342;DHT22;14054;50.108;8.640;2023-12-04T04:36:47;-2.00;99.90
26342;DHT22;14054;50.108;8.640;2023-12-04T04:39:13;-2.00;99.90
26342;DHT22;14054;50.108;8.640;2023-12-04T04:41:39;-2.00;99.90
26342;DHT22;14054;50.108;8.640;2023-12-04T04:44:05;-2.00;99.90
26342;DHT22;14054;50.108;8.640;2023-12-04T04:46:30;-2.00;99.90
26342;DHT22;14054;50.108;8.640;2023-12-04T04:48:56;-2.00;99.90
26342;DHT22;14054;50.108;8.640;2023-12-04T04:51:22;-2.00;99.90
26342;DHT22;14054;50.108;8.640;2023-12-04T04:53:48;-1.90;99.90
26342;DHT22;14054;50.108;8.640;2023-12-04T04:56:15;-1.90;99.90
26342;DHT22;14054;50.108;8.640;2023-12-04T04:58:41;-1.90;99.90
26342;DHT22;14054;50.108;8.640;2023-12-04T05:01:07;-1.90;99.90
26342;DHT22;14054;50.108;8.640;2023-12-04T05:03:33;-1.90;99.90
26342;DHT22;14054;50.108;8.640;2023-12-04T05:05:59;-1.90;99.90
26342;DHT22;14054;50.108;8.640;2023-12-04T05:08:24;-1.90;99.90
26342;DHT22;14054;50.108;8.640;2023-12-04T05:10:50;-1.90;99.90
26342;DHT22;14054;50.108;8.640;2023-12-04T05:13:15;-1.90;99.90
26342;DHT22;14054;50.108;8.640;2023-12-04T05:15:41;-1.90;99.90
26342;DHT22;14054;50.108;8.640;2023-12-04T05:18:06;-1.90;99.90
26342;DHT22;14054;50.108;8.640;2023-12-04T05:20:32;-1.90;99.90
26342;DHT22;14054;50.108;8.640;2023-12-04T05:22:57;-1.90;99.90
26342;DHT22;14054;50.108;8.640;2023-12-04T05:25:23;-1.90;99.90
26342;DHT22;14054;50.108;8.640;2023-12-04T05:27:48;-1.90;99.90
26342;DHT22;14054;50.108;8.640;2023-12-04T05:30:14;-1.90;99.90
26342;DHT22;14054;50.108;8.640;2023-12-04T05:32:40;-1.90;99.90
26342;DHT22;14054;50.108;8.640;2023-12-04T05:35:05;-1.90;99.90
26342;DHT22;14054;50.108;8.640;2023-12-04T05:37:31;-1.90;99.90
26342;DHT22;14054;50.108;8.640;2023-12-04T05:39:57;-1.90;99.90
26342;DHT22;14054;50.108;8.640;2023-12-04T05:42:23;-1.90;99.90
26342;DHT22;14054;50.108;8.640;2023-12-04T05:44:48;-1.90;99.90
26342;DHT22;14054;50.108;8.640;2023-12-04T05:47:14;-1.90;99.90
26342;DHT22;14054;50.108;8.640;2023-12-04T05:49:40;-1.90;99.90
26342;DHT22;14054;50.108;8.640;2023-12-04T05:52:06;-1.90;99.90
26342;DHT22;14054;50.108;8.640;2023-12-04T05:54:31;-1.90;99.90
26342;DHT22;14054;50.108;8.640;2023-12-04T05:56:57;-2.00;99.90
26342;DHT22;14054;50.108;8.640;2023-12-04T05:59:22;-1.90;99.90
26342;DHT22;14054;50.108;8.640;2023-12-04T06:01:48;-1.90;99.90
26342;DHT22;14054;50.108;8.640;2023-12-04T06:04:13;-1.90;99.90
26342;DHT22;14054;50.108;8.640;2023-12-04T06:06:39;-1.90;99.90
26342;DHT22;14054;50.108;8.640;2023-12-04T06:09:04;-1.90;99.90
26342;DHT22;14054;50.108;8.640;2023-12-04T06:11:30;-1.90;99.90
26342;DHT22;14054;50.108;8.640;2023-12-04T06:13:56;-1.90;99.90
26342;DHT22;14054;50.108;8.640;2023-12-04T06:16:21;-1.90;99.90
26342;DHT22;14054;50.108;8.640;2023-12-04T06:18:47;-1.90;99.90
26342;DHT22;14054;50.108;8.640;2023-12-04T06:21:12;-1.90;99.90
26342;DHT22;14054;50.108;8.640;2023-12-04T06:23:38;-1.90;99.90
26342;DHT22;14054;50.108;8.640;2023-12-04T06:26:04;-1.90;99.90
26342;DHT22;14054;50.108;8.640;2023-12-04T06:28:30;-1.80;99.90
26342;DHT22;14054;50.108;8.640;2023-12-04T06:30:56;-1.90;99.90
26342;DHT22;14054;50.108;8.640;2023-12-04T06:33:22;-1.90;99.90
26342;DHT22;14054;50.108;8.640;2023-12-04T06:35:48;-1.90;99.90
26342;DHT22;14054;50.108;8.640;2023-12-04T06:38:15;-1.90;99.90
26342;DHT22;14054;50.108;8.640;2023-12-04T06:40:44;-1.90;99.90
26342;DHT22;14054;50.108;8.640;2023-12-04T06:43:09;-1.90;99.90
26342;DHT22;14054;50.108;8.640;2023-12-04T06:45:35;-1.90;99.90
26342;DHT22;14054;50.108;8.640;2023-12-04T06:48:01;-1.90;99.90
26342;DHT22;14054;50.108;8.640;2023-12-04T06:50:27;-1.90;99.90
26342;DHT22;14054;50.108;8.640;2023-12-04T06:52:53;-1.90;99.90
26342;DHT22;14054;50.108;8.640;2023-12-04T06:55:18;-1.90;99.90
26342;DHT22;14054;50.108;8.640;2023-12-04T06:57:44;-1.80;99.90
26342;DHT22;14054;50.108;8.640;2023-12-04T07:00:10;-1.90;99.90
26342;DHT22;14054;50.108;8.640;2023-12-04T07:02:40;-1.90;99.90
26342;DHT22;14054;50.108;8.640;2023-12-04T07:05:06;-1.90;99.90
26342;DHT22;14054;50.108;8.640;2023-12-04T07:07:31;-1.90;99.90
26342;DHT22;14054;50.108;8.640;2023-12-04T07:09:57;-1.80;99.90
26342;DHT22;14054;50.108;8.640;2023-12-04T07:12:22;-1.90;99.90
26342;DHT22;14054;50.108;8.640;2023-12-04T07:14:48;-1.90;99.90
26342;DHT22;14054;50.108;8.640;2023-12-04T07:17:14;-1.90;99.90
26342;DHT22;14054;50.108;8.640;2023-12-04T07:19:41;-1.90;99.90
26342;DHT22;14054;50.108;8.640;2023-12-04T07:22:07;-1.90;99.90
26342;DHT22;14054;50.108;8.640;2023-12-04T07:24:32;-1.90;99.90
26342;DHT22;14054;50.108;8.640;2023-12-04T07:26:59;-1.80;99.90
26342;DHT22;14054;50.108;8.640;2023-12-04T07:29:25;-1.80;99.90
26342;DHT22;14054;50.108;8.640;2023-12-04T07:31:51;-1.80;99.90
26342;DHT22;14054;50.108;8.640;2023-12-04T07:34:16;-1.80;99.90
26342;DHT22;14054;50.108;8.640;2023-12-04T07:36:42;-1.80;99.90
26342;DHT22;14054;50.108;8.640;2023-12-04T07:39:10;-1.80;99.90
26342;DHT22;14054;50.108;8.640;2023-12-04T07:41:36;-1.70;99.90
26342;DHT22;14054;50.108;8.640;2023-12-04T07:44:02;-1.70;99.90
26342;DHT22;14054;50.108;8.640;2023-12-04T07:46:28;-1.70;99.90
26342;DHT22;14054;50.108;8.640;2023-12-04T07:48:54;-1.70;99.90
26342;DHT22;14054;50.108;8.640;2023-12-04T07:51:20;-1.70;99.90
26342;DHT22;14054;50.108;8.640;2023-12-04T07:53:45;-1.70;99.90
26342;DHT22;14054;50.108;8.640;2023-12-04T07:56:12;-1.80;99.90
26342;DHT22;14054;50.108;8.640;2023-12-04T07:58:37;-1.70;99.90
26342;DHT22;14054;50.108;8.640;2023-12-04T08:01:03;-1.70;99.90
26342;DHT22;14054;50.108;8.640;2023-12-04T08:03:29;-1.70;99.90
26342;DHT22;14054;50.108;8.640;2023-12-04T08:05:54;-1.60;99.90
26342;DHT22;14054;50.108;8.640;2023-12-04T08:08:20;-1.60;99.90
26342;DHT22;14054;50.108;8.640;2023-12-04T08:10:46;-1.50;99.90
26342;DHT22;14054;50.108;8.640;2023-12-04T08:13:12;-1.50;99.90
26342;DHT22;14054;50.108;8.640;2023-12-04T08:15:38;-1.50;99.90
26342;DHT22;14054;50.108;8.640;2023-12-04T08:18:03;-1.50;99.90
26342;DHT22;14054;50.108;8.640;2023-12-04T08:20:29;-1.50;99.90
26342;DHT22;14054;50.108;8.640;2023-12-04T08:22:54;-1.40;99.90
26342;DHT22;14054;50.108;8.640;2023-12-04T08:25:20;-1.30;99.90
26342;DHT22;14054;50.108;8.640;2023-12-04T08:27:46;-1.30;99.90
26342;DHT22;14054;50.108;8.640;2023-12-04T08:30:11;-1.30;99.90
26342;DHT22;14054;50.108;8.640;2023-12-04T08:32:37;-1.20;99.90
26342;DHT22;14054;50.108;8.640;2023-12-04T08:35:03;-1.20;99.90
26342;DHT22;14054;50.108;8.640;2023-12-04T08:37:30;-1.20;99.90
26342;DHT22;14054;50.108;8.640;2023-12-04T08:39:56;-1.20;99.90
26342;DHT22;14054;50.108;8.640;2023-12-04T08:42:22;-1.20;99.90
26342;DHT22;14054;50.108;8.640;2023-12-04T08:44:47;-1.10;99.90
26342;DHT22;14054;50.108;8.640;2023-12-04T08:47:13;-1.10;99.90
26342;DHT22;14054;50.108;8.640;2023-12-04T08:49:40;-1.00;99.90
26342;DHT22;14054;50.108;8.640;2023-12-04T08:52:06;-1.00;99.90
26342;DHT22;14054;50.108;8.640;2023-12-04T08:54:32;-1.10;99.90
26342;DHT22;14054;50.108;8.640;2023-12-04T08:56:58;-1.10;99.90
26342;DHT22;14054;50.108;8.640;2023-12-04T08:59:23;-1.10;99.90
26342;DHT22;14054;50.108;8.640;2023-12-04T09:01:49;-1.10;99.90
26342;DHT22;14054;50.108;8.640;2023-12-04T09:04:14;-1.10;99.90
26342;DHT22;14054;50.108;8.640;2023-12-04T09:06:40;-0.90;99.90
26342;DHT22;14054;50.108;8.640;2023-12-04T09:09:05;-0.80;99.90
26342;DHT22;14054;50.108;8.640;2023-12-04T09:11:31;-0.70;99.90
26342;DHT22;14054;50.108;8.640;2023-12-04T09:13:57;-0.60;99.90
26342;DHT22;14054;50.108;8.640;2023-12-04T09:16:23;-0.70;99.90
26342;DHT22;14054;50.108;8.640;2023-12-04T09:18:48;-0.70;99.90
26342;DHT22;14054;50.108;8.640;2023-12-04T09:21:14;-0.70;99.90
26342;DHT22;14054;50.108;8.640;2023-12-04T09:23:40;-0.70;99.90
26342;DHT22;14054;50.108;8.640;2023-12-04T09:26:05;-0.70;99.90
26342;DHT22;14054;50.108;8.640;2023-12-04T09:28:31;-0.80;99.90
26342;DHT22;14054;50.108;8.640;2023-12-04T09:30:56;-0.80;99.90
26342;DHT22;14054;50.108;8.640;2023-12-04T09:33:22;-0.80;99.90
26342;DHT22;14054;50.108;8.640;2023-12-04T09:35:47;-0.80;99.90
26342;DHT22;14054;50.108;8.640;2023-12-04T09:38:13;-0.80;99.90
26342;DHT22;14054;50.108;8.640;2023-12-04T09:40:38;-0.80;99.90
26342;DHT22;14054;50.108;8.640;2023-12-04T09:43:06;-0.70;99.90
26342;DHT22;14054;50.108;8.640;2023-12-04T09:45:32;-0.80;99.90
26342;DHT22;14054;50.108;8.640;2023-12-04T09:47:58;-0.80;99.90
26342;DHT22;14054;50.108;8.640;2023-12-04T09:50:25;-0.80;99.90
26342;DHT22;14054;50.108;8.640;2023-12-04T09:52:51;-0.70;99.90
26342;DHT22;14054;50.108;8.640;2023-12-04T09:55:17;-0.90;99.90
26342;DHT22;14054;50.108;8.640;2023-12-04T09:57:44;-0.90;99.90
26342;DHT22;14054;50.108;8.640;2023-12-04T10:00:12;-0.70;99.90
26342;DHT22;14054;50.108;8.640;2023-12-04T10:02:39;-0.80;99.90
26342;DHT22;14054;50.108;8.640;2023-12-04T10:05:06;-0.80;99.90
26342;DHT22;14054;50.108;8.640;2023-12-04T10:07:33;-0.80;99.90
26342;DHT22;14054;50.108;8.640;2023-12-04T10:09:59;-0.80;99.90
26342;DHT22;14054;50.108;8.640;2023-12-04T10:12:25;-0.70;99.90
26342;DHT22;14054;50.108;8.640;2023-12-04T10:15:08;-0.70;99.90
26342;DHT22;14054;50.108;8.640;2023-12-04T10:17:41;-0.60;99.90
26342;DHT22;14054;50.108;8.640;2023-12-04T10:20:12;-0.60;99.90
26342;DHT22;14054;50.108;8.640;2023-12-04T10:22:39;-0.60;99.90
26342;DHT22;14054;50.108;8.640;2023-12-04T10:25:14;-0.50;99.90
26342;DHT22;14054;50.108;8.640;2023-12-04T10:27:42;-0.50;99.90
26342;DHT22;14054;50.108;8.640;2023-12-04T10:30:09;-0.50;99.90
26342;DHT22;14054;50.108;8.640;2023-12-04T10:32:41;-0.50;99.90
26342;DHT22;14054;50.108;8.640;2023-12-04T10:35:07;-0.50;99.90
26342;DHT22;14054;50.108;8.640;2023-12-04T10:37:38;-0.50;99.90
26342;DHT22;14054;50.108;8.640;2023-12-04T10:40:05;-0.40;99.90
26342;DHT22;14054;50.108;8.640;2023-12-04T10:42:34;-0.40;99.90
26342;DHT22;14054;50.108;8.640;2023-12-04T10:45:00;-0.40;99.90
26342;DHT22;14054;50.108;8.640;2023-12-04T10:47:27;-0.30;99.90
26342;DHT22;14054;50.108;8.640;2023-12-04T10:49:53;-0.20;99.90
26342;DHT22;14054;50.108;8.640;2023-12-04T10:52:20;-0.30;99.90
26342;DHT22;14054;50.108;8.640;2023-12-04T10:54:47;-0.20;99.90
26342;DHT22;14054;50.108;8.640;2023-12-04T10:57:25;-0.10;99.90
26342;DHT22;14054;50.108;8.640;2023-12-04T10:59:54;0.10;99.90
26342;DHT22;14054;50.108;8.640;2023-12-04T11:02:21;0.00;99.90
26342;DHT22;14054;50.108;8.640;2023-12-04T11:04:55;-0.20;99.90
26342;DHT22;14054;50.108;8.640;2023-12-04T11:07:24;-0.10;99.90
26342;DHT22;14054;50.108;8.640;2023-12-04T11:09:50;-0.10;99.90
26342;DHT22;14054;50.108;8.640;2023-12-04T11:12:18;-0.20;99.90
26342;DHT22;14054;50.108;8.640;2023-12-04T11:14:49;-0.10;99.90
26342;DHT22;14054;50.108;8.640;2023-12-04T11:17:17;-0.10;99.90
26342;DHT22;14054;50.108;8.640;2023-12-04T11:19:50;-0.10;99.90
26342;DHT22;14054;50.108;8.640;2023-12-04T11:22:17;0.00;99.90
26342;DHT22;14054;50.108;8.640;2023-12-04T11:24:47;0.00;99.90
26342;DHT22;14054;50.108;8.640;2023-12-04T11:27:15;0.00;99.90
26342;DHT22;14054;50.108;8.640;2023-12-04T11:29:41;-0.10;99.90
26342;DHT22;14054;50.108;8.640;2023-12-04T11:32:07;-0.10;99.90
26342;DHT22;14054;50.108;8.640;2023-12-04T11:34:33;-0.10;99.90
26342;DHT22;14054;50.108;8.640;2023-12-04T11:37:00;-0.10;99.90
26342;DHT22;14054;50.108;8.640;2023-12-04T11:39:28;-0.10;99.90
26342;DHT22;14054;50.108;8.640;2023-12-04T11:41:54;-0.10;99.90
26342;DHT22;14054;50.108;8.640;2023-12-04T11:44:19;-0.10;99.90
26342;DHT22;14054;50.108;8.640;2023-12-04T11:46:55;-0.10;99.90
26342;DHT22;14054;50.108;8.640;2023-12-04T11:49:29;-0.10;99.90
26342;DHT22;14054;50.108;8.640;2023-12-04T11:51:59;-0.10;99.90
26342;DHT22;14054;50.108;8.640;2023-12-04T11:54:27;-0.10;99.90
26342;DHT22;14054;50.108;8.640;2023-12-04T11:56:58;-0.20;99.90
26342;DHT22;14054;50.108;8.640;2023-12-04T11:59:24;-0.40;99.90
26342;DHT22;14054;50.108;8.640;2023-12-04T12:01:51;-0.50;99.90
26342;DHT22;14054;50.108;8.640;2023-12-04T12:04:19;-0.70;99.90
26342;DHT22;14054;50.108;8.640;2023-12-04T12:06:45;-0.60;99.90
26342;DHT22;14054;50.108;8.640;2023-12-04T12:09:11;-0.70;99.90
26342;DHT22;14054;50.108;8.640;2023-12-04T12:11:37;-0.80;99.90
26342;DHT22;14054;50.108;8.640;2023-12-04T12:14:02;-0.80;99.90
26342;DHT22;14054;50.108;8.640;2023-12-04T12:16:31;-0.90;99.90
26342;DHT22;14054;50.108;8.640;2023-12-04T12:18:57;-1.00;99.90
26342;DHT22;14054;50.108;8.640;2023-12-04T12:21:23;-1.00;99.90
26342;DHT22;14054;50.108;8.640;2023-12-04T12:23:48;-1.00;99.90
26342;DHT22;14054;50.108;8.640;2023-12-04T12:26:14;-1.00;99.90
26342;DHT22;14054;50.108;8.640;2023-12-04T12:28:39;-0.90;99.90
26342;DHT22;14054;50.108;8.640;2023-12-04T12:31:05;-0.90;99.90
26342;DHT22;14054;50.108;8.640;2023-12-04T12:33:30;-0.90;99.90
26342;DHT22;14054;50.108;8.640;2023-12-04T12:35:58;-0.70;99.90
26342;DHT22;14054;50.108;8.640;2023-12-04T12:38:25;-0.90;99.90
26342;DHT22;14054;50.108;8.640;2023-12-04T12:40:50;-1.10;99.90
26342;DHT22;14054;50.108;8.640;2023-12-04T12:43:16;-1.20;99.90
26342;DHT22;14054;50.108;8.640;2023-12-04T12:45:43;-1.20;99.90
26342;DHT22;14054;50.108;8.640;2023-12-04T12:48:16;-1.20;99.90
26342;DHT22;14054;50.108;8.640;2023-12-04T12:50:48;-1.20;99.90
26342;DHT22;14054;50.108;8.640;2023-12-04T12:53:14;-1.30;99.90
26342;DHT22;14054;50.108;8.640;2023-12-04T12:55:43;-1.40;99.90
26342;DHT22;14054;50.108;8.640;2023-12-04T12:58:09;-1.40;99.90
26342;DHT22;14054;50.108;8.640;2023-12-04T13:00:36;-1.40;99.90
26342;DHT22;14054;50.108;8.640;2023-12-04T13:03:02;-1.40;99.90
26342;DHT22;14054;50.108;8.640;2023-12-04T13:05:28;-1.30;99.90
26342;DHT22;14054;50.108;8.640;2023-12-04T13:07:54;-1.30;99.90
26342;DHT22;14054;50.108;8.640;2023-12-04T13:10:21;-1.30;99.90
26342;DHT22;14054;50.108;8.640;2023-12-04T13:12:46;-1.30;99.90
26342;DHT22;14054;50.108;8.640;2023-12-04T13:15:17;-1.30;99.90
26342;DHT22;14054;50.108;8.640;2023-12-04T13:17:43;-1.30;99.90
26342;DHT22;14054;50.108;8.640;2023-12-04T13:20:09;-1.30;99.90
26342;DHT22;14054;50.108;8.640;2023-12-04T13:22:38;-1.30;99.90
26342;DHT22;14054;50.108;8.640;2023-12-04T13:25:04;-1.20;99.90
26342;DHT22;14054;50.108;8.640;2023-12-04T13:27:33;-1.00;99.90
26342;DHT22;14054;50.108;8.640;2023-12-04T13:29:58;-1.10;99.90
26342;DHT22;14054;50.108;8.640;2023-12-04T13:32:24;-1.10;99.90
26342;DHT22;14054;50.108;8.640;2023-12-04T13:34:49;-1.10;99.90
26342;DHT22;14054;50.108;8.640;2023-12-04T13:37:15;-1.10;99.90
26342;DHT22;14054;50.108;8.640;2023-12-04T13:39:41;-1.10;99.90
26342;DHT22;14054;50.108;8.640;2023-12-04T13:42:14;-1.00;99.90
26342;DHT22;14054;50.108;8.640;2023-12-04T13:44:59;-1.00;99.90
26342;DHT22;14054;50.108;8.640;2023-12-04T13:47:25;-1.10;99.90
26342;DHT22;14054;50.108;8.640;2023-12-04T13:49:50;-1.10;99.90
26342;DHT22;14054;50.108;8.640;2023-12-04T13:52:16;-1.10;99.90
26342;DHT22;14054;50.108;8.640;2023-12-04T13:54:45;-1.10;99.90
26342;DHT22;14054;50.108;8.640;2023-12-04T13:57:13;-1.00;99.90
26342;DHT22;14054;50.108;8.640;2023-12-04T14:00:01;-1.00;99.90
26342;DHT22;14054;50.108;8.640;2023-12-04T14:02:28;-1.00;99.90
26342;DHT22;14054;50.108;8.640;2023-12-04T14:04:53;-1.00;99.90
26342;DHT22;14054;50.108;8.640;2023-12-04T14:07:19;-1.10;99.90
26342;DHT22;14054;50.108;8.640;2023-12-04T14:09:44;-1.10;99.90
26342;DHT22;14054;50.108;8.640;2023-12-04T14:12:10;-1.10;99.90
26342;DHT22;14054;50.108;8.640;2023-12-04T14:14:37;-1.00;99.90
26342;DHT22;14054;50.108;8.640;2023-12-04T14:17:05;-1.00;99.90
26342;DHT22;14054;50.108;8.640;2023-12-04T14:19:32;-1.00;99.90
26342;DHT22;14054;50.108;8.640;2023-12-04T14:21:58;-0.90;99.90
26342;DHT22;14054;50.108;8.640;2023-12-04T14:24:24;-1.10;99.90
26342;DHT22;14054;50.108;8.640;2023-12-04T14:26:49;-1.00;99.90
26342;DHT22;14054;50.108;8.640;2023-12-04T14:29:15;-0.90;99.90
26342;DHT22;14054;50.108;8.640;2023-12-04T14:31:40;-0.90;99.90
26342;DHT22;14054;50.108;8.640;2023-12-04T14:34:06;-0.80;99.90
26342;DHT22;14054;50.108;8.640;2023-12-04T14:36:31;-0.90;99.90
26342;DHT22;14054;50.108;8.640;2023-12-04T14:38:58;-0.90;99.90
26342;DHT22;14054;50.108;8.640;2023-12-04T14:41:23;-0.90;99.90
26342;DHT22;14054;50.108;8.640;2023-12-04T14:43:50;-0.90;99.90
26342;DHT22;14054;50.108;8.640;2023-12-04T14:46:15;-0.90;99.90
26342;DHT22;14054;50.108;8.640;2023-12-04T14:48:42;-0.90;99.90
26342;DHT22;14054;50.108;8.640;2023-12-04T14:51:08;-0.80;99.90
26342;DHT22;14054;50.108;8.640;2023-12-04T14:53:40;-0.80;99.90
26342;DHT22;14054;50.108;8.640;2023-12-04T14:56:11;-0.80;99.90
26342;DHT22;14054;50.108;8.640;2023-12-04T14:58:56;-0.80;99.90
26342;DHT22;14054;50.108;8.640;2023-12-04T15:01:30;-0.80;99.90
26342;DHT22;14054;50.108;8.640;2023-12-04T15:04:02;-0.80;99.90
26342;DHT22;14054;50.108;8.640;2023-12-04T15:06:40;-0.70;99.90
26342;DHT22;14054;50.108;8.640;2023-12-04T15:09:37;-0.70;99.90
26342;DHT22;14054;50.108;8.640;2023-12-04T15:12:41;-0.60;99.90
26342;DHT22;14054;50.108;8.640;2023-12-04T15:15:25;-0.70;99.90
26342;DHT22;14054;50.108;8.640;2023-12-04T15:17:53;-0.70;99.90
26342;DHT22;14054;50.108;8.640;2023-12-04T15:20:42;-0.70;99.90
26342;DHT22;14054;50.108;8.640;2023-12-04T15:23:08;-0.70;99.90
26342;DHT22;14054;50.108;8.640;2023-12-04T15:25:34;-0.70;99.90
26342;DHT22;14054;50.108;8.640;2023-12-04T15:27:59;-0.70;99.90